Bowling Green, South Carolina
Current Conditions -  °F | °C
As of 11:54 PM on Monday 22 Dec 2014 (Local Time) from KAKH Reporting Station
Light Snow Light Snow  
Wind Chill: 33°   Ceiling: 600
Heat Index: 38°   Visibility: 7mi
Dew Point: 35°   Wind: 7mph
Humidity: 89%   Direction: 30°NNE
Pressure: 30.02"   Gusts: NA
Location:  35.15°N, 81.21°W
Report Text: KAKH 230454Z AUTO 03006KT 7SM -SN OVC006 03/02 A3002 RMK AO2 SLP170 P0001 T00330017 400780033
Loading
Personal Weather Stations






























Interactive Weather Map New forecast layout! Learn more

10-Day Weather Forecast

Advertisements
Track Severe Weather on mobile